Arbon, ID

8:17 AM MDT on September 05, 2015 (GMT -0600)
The Hood | | Change Station
CLOSE
Current Station
Personal Weather Station
Location: Rockland, ID
Elevation: 4560 ft
Nearby Weather Stations

Elev 4560 ft 42.57 °N, 112.88 °W | Updated 12 minutes ago

Partly Cloudy
Partly Cloudy
45.0 °F
Feels Like 45 °F
N
0.0
Wind Variable Wind from SE

Today
High -- | Low -- °F
--% Chance of Precip.
Yesterday
High -- | Low -- °F
Precip. -- in
6:59 AM 7:57 PM
Waning Gibbous, 48% visible
Pressure 29.88 in
Visibility 10.0 miles
Clouds Scattered Clouds 12000 ft
Windchill 45 °F
Dew Point 38 °F
Humidity 75%
Rainfall 0.00 in
Snow Depth Not available.
UV 0 out of 12
Pollen 8.80 out of 12
Air Quality Not available.
Flu Activity Not available.
METAR KPIH 051353Z 23011KT 10SM SCT120 10/02 A2997 RMK AO2 SLP116 T01000022
Pressure 29.88 in
Visibility 10.0 miles
Clouds Scattered Clouds 12000 ft
Windchill 45 °F
Dew Point 38 °F
Humidity 75%
Rainfall 0.00 in
Snow Depth Not available.
UV 0 out of 12
Pollen 8.80 out of 12
Air Quality Not available.
Flu Activity Not available.
METAR KPIH 051353Z 23011KT 10SM SCT120 10/02 A2997 RMK AO2 SLP116 T01000022

10-Day Weather Forecast

×

Almanac

Astronomy

Sep. 05, 2015 Rise Set
Actual Time
Civil Twilight
Nautical Twilight
Astronomical Twilight
Moon
Length of Visible Light
Length of Day
Tomorrow will be .
, % of the Moon is Illuminated

Today's Extremes

State Highs State Lows

Community

WunderPhotos

Upload Photos

1,852,472 photos uploaded!

WunderBlogs® & News

Nearby

Air Quality

  Air Quality AQ Index Pollutant
Not available.

Snow Depth

Station Depth Elevation

Earthquake Activity

City Distance Mag. Time & Date
Minimum magnitude displayed is 2.5.

Coastal Water Temperatures

Place Temperature

Stations

Nearby Weather Stations

Station Location Temp. Windchill Dew Point Humidity Wind Precip. Elev Updated Type